Time;durP1;ratioP1;P1;durP2;ratioP2;P2;SDS_P1;SDS_P2;PMS_P1;PMS_P2;Temp;Humidity;BMP_temperature;BMP_pressure;BME280_temperature;BME280_humidity;BME280_pressure;Samples;Min_cycle;Max_cycle;Signal;HPM_P1;HPM_P2
2023/12/20 00:00:39;;;;;;;;;;;;;;;16.71;44.94;99452.22;10328527;28;1886;-71
2023/12/20 00:05:38;;;;;;;;;;;;;;;16.75;44.89;99459.94;10329116;28;802;-71
2023/12/20 00:10:33;;;;;;;;;;;;;;;16.75;44.84;99459.94;10329325;28;803;-71
2023/12/20 00:15:29;;;;;;;;;;;;;;;16.73;44.95;99471.44;10328110;28;789;-71
2023/12/20 00:20:25;;;;;;;;;;;;;;;16.69;44.88;99469.84;10328500;28;1945;-71
2023/12/20 00:25:21;;;;;;;;;;;;;;;16.72;44.88;99470.59;10327904;28;924;-71
2023/12/20 00:30:17;;;;;;;;;;;;;;;16.74;44.69;99467.88;10328137;28;867;-71
2023/12/20 00:35:13;;;;;;;;;;;;;;;16.72;44.87;99460.06;10326721;28;865;-72
2023/12/20 00:40:09;;;;;;;;;;;;;;;16.71;44.95;99470.66;10326897;28;1914;-71
2023/12/20 00:45:05;;;;;;;;;;;;;;;16.68;44.86;99474.28;10326157;28;858;-71
2023/12/20 00:50:00;;;;;;;;;;;;;;;16.72;45.00;99477.66;10327299;28;845;-71
2023/12/20 00:54:56;;;;;;;;;;;;;;;16.72;45.05;99473.25;10327101;28;940;-71
2023/12/20 00:59:52;;;;;;;;;;;;;;;16.72;45.13;99482.91;10326363;28;1894;-71
2023/12/20 01:04:48;;;;;;;;;;;;;;;16.67;45.12;99480.47;10326871;28;889;-71
2023/12/20 01:09:44;;;;;;;;;;;;;;;16.70;44.92;99482.97;10326889;28;997;-71
2023/12/20 01:14:40;;;;;;;;;;;;;;;16.73;44.77;99495.13;10326614;28;820;-71
2023/12/20 01:19:36;;;;;;;;;;;;;;;16.69;45.06;99486.53;10325742;28;1959;-71
2023/12/20 01:24:32;;;;;;;;;;;;;;;16.66;45.11;99484.00;10326334;28;904;-71
2023/12/20 01:29:27;;;;;;;;;;;;;;;16.70;44.99;99501.38;10325690;28;1391;-71
2023/12/20 01:34:23;;;;;;;;;;;;;;;16.73;44.83;99516.19;10326201;28;854;-71
2023/12/20 01:39:19;;;;;;;;;;;;;;;16.70;44.94;99519.81;10325642;28;1901;-71
2023/12/20 01:44:15;;;;;;;;;;;;;;;16.68;45.11;99520.78;10326726;28;880;-71
2023/12/20 01:49:11;;;;;;;;;;;;;;;16.68;45.03;99529.53;10325213;28;826;-71
2023/12/20 01:54:07;;;;;;;;;;;;;;;16.72;45.00;99541.66;10328810;28;809;-71
2023/12/20 01:59:04;;;;;;;;;;;;;;;16.72;44.78;99527.66;10333370;28;1955;-71
2023/12/20 02:04:00;;;;;;;;;;;;;;;16.68;45.03;99523.44;10333500;28;973;-71
2023/12/20 02:08:56;;;;;;;;;;;;;;;16.67;44.91;99512.06;10333093;28;759;-71
2023/12/20 02:13:51;;;;;;;;;;;;;;;16.70;45.04;99521.59;10333714;28;872;-71
2023/12/20 02:18:47;;;;;;;;;;;;;;;16.70;44.83;99518.97;10333219;28;1894;-71
2023/12/20 02:23:43;;;;;;;;;;;;;;;16.66;45.10;99512.94;10333772;28;979;-71
2023/12/20 02:28:39;;;;;;;;;;;;;;;16.67;44.94;99514.69;10332280;28;753;-71
2023/12/20 02:33:35;;;;;;;;;;;;;;;16.70;45.00;99513.69;10332681;28;857;-71
2023/12/20 02:38:31;;;;;;;;;;;;;;;16.68;44.89;99513.75;10331545;28;1910;-70
2023/12/20 02:43:27;;;;;;;;;;;;;;;16.67;45.08;99519.94;10332314;28;847;-71
2023/12/20 02:48:23;;;;;;;;;;;;;;;16.70;44.96;99506.66;10331554;28;776;-71
2023/12/20 02:53:19;;;;;;;;;;;;;;;16.70;44.86;99518.97;10331333;28;766;-71
2023/12/20 02:58:14;;;;;;;;;;;;;;;16.68;44.89;99516.38;10331109;28;1893;-71
2023/12/20 03:03:10;;;;;;;;;;;;;;;16.70;44.76;99518.97;10331226;28;822;-71
2023/12/20 03:08:06;;;;;;;;;;;;;;;16.73;44.94;99513.56;10330067;28;762;-71
2023/12/20 03:13:02;;;;;;;;;;;;;;;16.71;44.85;99505.72;10330616;28;882;-71
2023/12/20 03:17:59;;;;;;;;;;;;;;;16.69;45.00;99507.59;10331372;28;1959;-71
2023/12/20 03:22:55;;;;;;;;;;;;;;;16.69;45.00;99501.44;10330814;28;852;-71
2023/12/20 03:27:51;;;;;;;;;;;;;;;16.70;44.97;99504.03;10330964;28;798;-71
2023/12/20 03:32:46;;;;;;;;;;;;;;;16.72;44.88;99510.09;10330008;28;991;-71
2023/12/20 03:37:43;;;;;;;;;;;;;;;16.71;44.94;99502.25;10329535;28;1886;-71
2023/12/20 03:42:39;;;;;;;;;;;;;;;16.67;44.82;99504.16;10330069;28;881;-71
2023/12/20 03:47:34;;;;;;;;;;;;;;;16.69;45.09;99510.22;10328723;28;900;-71
2023/12/20 03:52:30;;;;;;;;;;;;;;;16.71;44.74;99513.63;10329094;28;860;-71
2023/12/20 03:57:26;;;;;;;;;;;;;;;16.67;44.87;99514.69;10329421;28;1889;-71
2023/12/20 04:02:22;;;;;;;;;;;;;;;16.66;44.95;99518.22;10328839;28;813;-71
2023/12/20 04:07:18;;;;;;;;;;;;;;;16.68;44.81;99512.91;10328548;28;806;-71
2023/12/20 04:12:14;;;;;;;;;;;;;;;16.70;44.85;99518.97;10328331;28;972;-71
2023/12/20 04:17:10;;;;;;;;;;;;;;;16.68;44.91;99520.78;10328053;28;1894;-71
2023/12/20 04:22:05;;;;;;;;;;;;;;;16.63;45.05;99508.66;10327922;28;859;-71
2023/12/20 04:27:01;;;;;;;;;;;;;;;16.68;44.81;99510.28;10327085;28;949;-71
2023/12/20 04:31:58;;;;;;;;;;;;;;;16.69;44.73;99504.97;10328227;28;957;-71
2023/12/20 04:36:54;;;;;;;;;;;;;;;16.67;45.05;99511.19;10327281;28;1955;-71
2023/12/20 04:41:50;;;;;;;;;;;;;;;16.63;44.86;99502.56;10327705;28;893;-71
2023/12/20 04:46:46;;;;;;;;;;;;;;;16.71;44.86;99504.88;10327696;28;790;-71
2023/12/20 04:51:41;;;;;;;;;;;;;;;16.75;44.72;99511.72;10326655;28;870;-71
2023/12/20 04:56:37;;;;;;;;;;;;;;;16.76;44.54;99503.75;10326498;28;1898;-71
2023/12/20 05:01:33;;;;;;;;;;;;;;;16.80;44.54;99507.16;10327651;28;885;-71
2023/12/20 05:06:29;;;;;;;;;;;;;;;16.80;44.59;99504.53;10326235;28;909;-71
2023/12/20 05:11:25;;;;;;;;;;;;;;;16.78;44.47;99501.09;10326133;28;845;-71
2023/12/20 05:16:21;;;;;;;;;;;;;;;16.81;44.68;99508.84;10325906;28;1893;-72
2023/12/20 05:21:17;;;;;;;;;;;;;;;16.80;44.71;99505.38;10325867;28;941;-71
2023/12/20 05:26:12;;;;;;;;;;;;;;;16.81;44.62;99509.72;10325704;28;893;-72
2023/12/20 05:31:08;;;;;;;;;;;;;;;16.84;44.42;99511.34;10325308;28;782;-72
2023/12/20 05:36:04;;;;;;;;;;;;;;;16.82;44.51;99508.81;10325267;28;1902;-72
2023/12/20 05:41:01;;;;;;;;;;;;;;;16.85;44.50;99513.94;10325445;28;1103;-72
2023/12/20 05:45:57;;;;;;;;;;;;;;;16.84;44.59;99517.47;10325902;28;834;-72
2023/12/20 05:50:53;;;;;;;;;;;;;;;16.83;44.63;99517.56;10325214;28;858;-72
2023/12/20 05:55:49;;;;;;;;;;;;;;;16.87;44.41;99521.75;10325242;28;929;-73
2023/12/20 06:00:45;;;;;;;;;;;;;;;16.88;44.68;99514.72;10324910;28;1980;-72
2023/12/20 06:05:41;;;;;;;;;;;;;;;16.83;44.50;99518.41;10324988;28;888;-75
2023/12/20 06:10:37;;;;;;;;;;;;;;;16.89;44.43;99519.06;10325450;28;818;-72
2023/12/20 06:15:33;;;;;;;;;;;;;;;16.90;44.33;99513.75;10325538;28;958;-72
2023/12/20 06:20:29;;;;;;;;;;;;;;;16.86;44.61;99515.63;10324621;28;1968;-73
2023/12/20 06:25:25;;;;;;;;;;;;;;;16.88;44.54;99498.94;10325170;28;974;-72
2023/12/20 06:30:21;;;;;;;;;;;;;;;16.90;44.45;99503.22;10325074;28;915;-72
2023/12/20 06:35:16;;;;;;;;;;;;;;;16.86;44.47;99507.72;10324147;28;1026;-71
2023/12/20 06:40:12;;;;;;;;;;;;;;;16.91;44.38;99512.81;10325273;28;1910;-73
2023/12/20 06:45:08;;;;;;;;;;;;;;;16.92;44.30;99508.38;10331699;28;821;-72
2023/12/20 06:50:04;;;;;;;;;;;;;;;16.89;44.42;99513.78;10331855;28;952;-71
2023/12/20 06:55:00;;;;;;;;;;;;;;;16.89;44.42;99505.91;10331298;28;883;-71
2023/12/20 06:59:57;;;;;;;;;;;;;;;16.89;44.12;99498.00;10331706;28;1898;-71
2023/12/20 07:04:53;;;;;;;;;;;;;;;16.84;44.28;99511.34;10330915;28;803;-70
2023/12/20 07:09:49;;;;;;;;;;;;;;;16.79;44.47;99503.69;10331405;28;899;-72
2023/12/20 07:14:45;;;;;;;;;;;;;;;16.75;44.75;99509.09;10330013;28;1176;-75
2023/12/20 07:19:41;;;;;;;;;;;;;;;16.74;44.51;99516.16;10330397;28;1949;-74
2023/12/20 07:24:37;;;;;;;;;;;;;;;16.66;44.64;99518.22;10330433;28;805;-71
2023/12/20 07:29:32;;;;;;;;;;;;;;;16.60;44.89;99516.69;10330086;28;815;-72
2023/12/20 07:34:28;;;;;;;;;;;;;;;16.58;44.78;99515.06;10329874;28;1047;-73
2023/12/20 07:39:24;;;;;;;;;;;;;;;16.58;44.68;99515.06;10329332;28;1983;-72
2023/12/20 07:44:21;;;;;;;;;;;;;;;16.58;44.58;99530.84;10330140;28;937;-72
2023/12/20 07:49:17;;;;;;;;;;;;;;;16.58;44.81;99530.84;10330025;28;874;-71
2023/12/20 07:54:12;;;;;;;;;;;;;;;16.61;44.59;99526.31;10329548;28;877;-74
2023/12/20 07:59:08;;;;;;;;;;;;;;;16.63;44.45;99526.25;10328861;28;1951;-72
2023/12/20 08:04:04;;;;;;;;;;;;;;;16.65;44.20;99521.78;10329322;28;794;-72
2023/12/20 08:09:00;;;;;;;;;;;;;;;16.66;44.40;99526.09;10329120;28;921;-73
2023/12/20 08:13:56;;;;;;;;;;;;;;;16.66;44.38;99518.22;10327740;28;809;-72
2023/12/20 08:18:52;;;;;;;;;;;;;;;16.68;44.24;99518.16;10328025;28;1902;-72
2023/12/20 08:23:48;;;;;;;;;;;;;;;16.68;43.99;99518.16;10327837;28;1133;-77
2023/12/20 08:28:44;;;;;;;;;;;;;;;16.69;44.13;99509.34;10328301;28;786;-72
2023/12/20 08:33:45;;;;;;;;;;;;;;;16.69;43.93;99518.13;10328033;28;864;-72
2023/12/20 08:38:41;;;;;;;;;;;;;;;16.69;43.88;99512.84;10328166;28;1909;-71
2023/12/20 08:43:39;;;;;;;;;;;;;;;16.68;43.99;99520.78;10327683;28;882;-72
2023/12/20 08:48:35;;;;;;;;;;;;;;;16.73;44.09;99518.81;10326915;28;853;-71
2023/12/20 08:53:31;;;;;;;;;;;;;;;16.71;43.99;99510.13;10326809;28;853;-71
2023/12/20 08:58:27;;;;;;;;;;;;;;;16.69;44.12;99511.97;10327116;28;1890;-72
2023/12/20 09:03:23;;;;;;;;;;;;;;;16.72;44.01;99509.22;10325802;28;786;-72
2023/12/20 09:08:19;;;;;;;;;;;;;;;16.70;44.08;99501.38;10327436;28;838;-71
2023/12/20 09:13:15;;;;;;;;;;;;;;;16.70;43.96;99498.75;10326021;28;886;-71
2023/12/20 09:18:11;;;;;;;;;;;;;;;16.71;44.09;99503.09;10325927;28;1969;-72
2023/12/20 09:23:06;;;;;;;;;;;;;;;16.69;43.96;99502.31;10325862;28;929;-72
2023/12/20 09:28:02;;;;;;;;;;;;;;;16.69;44.04;99501.44;10326794;28;869;-72
2023/12/20 09:32:58;;;;;;;;;;;;;;;16.71;43.74;99504.88;10326237;28;815;-72
2023/12/20 09:37:54;;;;;;;;;;;;;;;16.69;43.77;99476.00;10325027;28;1902;-72
2023/12/20 09:42:50;;;;;;;;;;;;;;;16.69;43.99;99465.47;10325445;28;875;-71
2023/12/20 09:47:46;;;;;;;;;;;;;;;16.70;43.81;99479.50;10325307;28;809;-72
2023/12/20 09:52:42;;;;;;;;;;;;;;;16.68;44.00;99474.28;10324698;28;903;-72
2023/12/20 09:57:38;;;;;;;;;;;;;;;16.70;43.77;99475.06;10324952;28;1890;-73
2023/12/20 10:02:34;;;;;;;;;;;;;;;16.68;43.94;99473.44;10325028;28;779;-73
2023/12/20 10:07:29;;;;;;;;;;;;;;;16.67;43.85;99482.25;10325495;28;935;-73
2023/12/20 10:12:25;;;;;;;;;;;;;;;16.68;43.83;99476.91;10324876;28;864;-73
2023/12/20 10:17:21;;;;;;;;;;;;;;;16.66;43.84;99476.09;10332187;28;1894;-72
2023/12/20 10:22:17;;;;;;;;;;;;;;;16.65;43.76;99470.00;10332001;28;1083;-72
2023/12/20 10:27:13;;;;;;;;;;;;;;;16.68;43.79;99465.53;10332400;28;872;-71
2023/12/20 10:32:09;;;;;;;;;;;;;;;16.68;43.52;99444.47;10332245;28;859;-71
2023/12/20 10:37:05;;;;;;;;;;;;;;;16.66;43.69;99434.00;10331901;28;1980;-75
2023/12/20 10:42:01;;;;;;;;;;;;;;;16.65;43.78;99433.16;10329169;28;1153;-71
2023/12/20 10:46:58;;;;;;;;;;;;;;;16.65;43.57;99432.31;10330413;28;806;-72
2023/12/20 10:51:54;;;;;;;;;;;;;;;16.64;43.53;99434.09;10330783;28;877;-71
2023/12/20 10:56:50;;;;;;;;;;;;;;;16.65;43.80;99442.84;10331328;28;1957;-72
2023/12/20 11:01:46;;;;;;;;;;;;;;;16.65;43.55;99438.41;10331152;28;814;-72
2023/12/20 11:06:42;;;;;;;;;;;;;;;16.66;43.79;99428.75;10331335;28;842;-72
2023/12/20 11:11:37;;;;;;;;;;;;;;;16.74;43.29;99434.56;10330202;28;968;-69
2023/12/20 11:16:33;;;;;;;;;;;;;;;16.95;43.46;99429.25;10330310;28;1959;-70
2023/12/20 11:21:29;;;;;;;;;;;;;;;16.97;43.51;99435.31;10330035;28;830;-71
2023/12/20 11:26:25;;;;;;;;;;;;;;;17.03;43.81;99433.28;10329812;28;849;-71
2023/12/20 11:31:21;;;;;;;;;;;;;;;17.04;43.69;99434.97;10329680;28;892;-70
2023/12/20 11:36:17;;;;;;;;;;;;;;;17.12;43.62;99437.28;10329783;28;1961;-70
2023/12/20 11:41:13;;;;;;;;;;;;;;;17.15;43.67;99437.13;10329360;28;786;-70
2023/12/20 11:46:11;;;;;;;;;;;;;;;17.10;43.72;99423.31;10329021;28;763;-71
2023/12/20 11:51:07;;;;;;;;;;;;;;;17.14;43.75;99419.63;10328321;28;842;-70
2023/12/20 11:56:03;;;;;;;;;;;;;;;17.06;43.78;99405.97;10328675;28;858;-71
2023/12/20 12:00:59;;;;;;;;;;;;;;;17.11;43.72;99416.25;10328453;28;1893;-71
2023/12/20 12:05:55;;;;;;;;;;;;;;;17.15;43.69;99410.78;10328225;28;806;-71
2023/12/20 12:10:51;;;;;;;;;;;;;;;17.17;43.58;99401.06;10328175;28;949;-72
2023/12/20 12:15:47;;;;;;;;;;;;;;;17.16;43.55;99396.72;10328328;28;770;-71
2023/12/20 12:20:43;;;;;;;;;;;;;;;17.17;43.60;99384.41;10327649;28;1953;-70
2023/12/20 12:25:39;;;;;;;;;;;;;;;17.17;43.68;99385.25;10326701;28;1004;-71
2023/12/20 12:30:35;;;;;;;;;;;;;;;17.15;43.64;99373.06;10312444;28;1691;-71
2023/12/20 12:35:31;;;;;;;;;;;;;;;17.21;43.96;99375.41;10286453;28;1338;-70
2023/12/20 12:40:27;;;;;;;;;;;;;;;17.18;43.82;99363.25;10287787;28;1982;-70
2023/12/20 12:45:24;;;;;;;;;;;;;;;17.18;43.82;99370.28;10327139;28;814;-70
2023/12/20 12:50:21;;;;;;;;;;;;;;;17.20;43.80;99371.09;10327406;28;861;-70
2023/12/20 12:55:17;;;;;;;;;;;;;;;17.19;43.60;99359.69;10324079;28;1128;-70
2023/12/20 13:00:13;;;;;;;;;;;;;;;17.19;43.91;99364.13;10323994;28;1965;-71
2023/12/20 13:05:09;;;;;;;;;;;;;;;17.21;44.07;99357.84;10325996;28;875;-71
2023/12/20 13:10:05;;;;;;;;;;;;;;;17.22;43.73;99359.56;10327112;28;866;-71
2023/12/20 13:15:03;;;;;;;;;;;;;;;17.19;43.82;99349.16;10326103;28;870;-71
2023/12/20 13:19:59;;;;;;;;;;;;;;;17.22;43.88;99325.31;10326505;28;1971;-71
2023/12/20 13:24:55;;;;;;;;;;;;;;;17.22;44.03;99325.31;10325831;28;1000;-72
2023/12/20 13:29:51;;;;;;;;;;;;;;;17.21;43.93;99323.63;10326364;28;845;-71
2023/12/20 13:34:47;;;;;;;;;;;;;;;17.28;44.04;99303.09;10325667;28;881;-71
2023/12/20 13:39:43;;;;;;;;;;;;;;;17.26;43.98;99299.66;10326345;28;1914;-70
2023/12/20 13:44:39;;;;;;;;;;;;;;;17.26;44.14;99310.19;10322184;28;1109;-70
2023/12/20 13:49:35;;;;;;;;;;;;;;;17.33;44.12;99303.72;10324713;28;929;-71
2023/12/20 13:54:31;;;;;;;;;;;;;;;17.29;44.23;99296.88;10325170;28;810;-71
2023/12/20 13:59:27;;;;;;;;;;;;;;;17.28;44.23;99301.31;10325073;28;1901;-71
2023/12/20 14:04:23;;;;;;;;;;;;;;;17.29;43.94;99296.88;10324581;28;842;-70
2023/12/20 14:09:18;;;;;;;;;;;;;;;17.26;44.06;99295.25;10324934;28;799;-70
2023/12/20 14:14:14;;;;;;;;;;;;;;;17.23;43.98;99298.03;10325246;28;846;-70
2023/12/20 14:19:10;;;;;;;;;;;;;;;17.26;44.21;99286.50;10325075;28;1959;-70
2023/12/20 14:24:06;;;;;;;;;;;;;;;17.22;43.94;99284.97;10324376;28;823;-70
2023/12/20 14:29:03;;;;;;;;;;;;;;;17.30;43.96;99288.91;10324258;28;892;-70
2023/12/20 14:34:03;;;;;;;;;;;;;;;17.30;43.96;99286.28;10325004;28;849;-71
2023/12/20 14:38:59;;;;;;;;;;;;;;;17.24;43.94;99283.97;10323308;28;1910;-72
2023/12/20 14:43:55;;;;;;;;;;;;;;;17.18;43.95;99281.59;10324825;28;867;-71
2023/12/20 14:48:51;;;;;;;;;;;;;;;17.13;44.38;99288.00;10323941;28;867;-70
2023/12/20 14:53:47;;;;;;;;;;;;;;;17.08;44.11;99290.84;10323813;28;896;-71
2023/12/20 14:58:43;;;;;;;;;;;;;;;17.04;44.00;99295.44;10324719;28;1886;-71
2023/12/20 15:03:39;;;;;;;;;;;;;;;17.03;44.27;99285.00;10329676;28;814;-71
2023/12/20 15:08:35;;;;;;;;;;;;;;;17.01;44.32;99289.47;10332016;28;880;-71
2023/12/20 15:13:32;;;;;;;;;;;;;;;17.01;44.25;99287.69;10330852;28;861;-71
2023/12/20 15:18:29;;;;;;;;;;;;;;;17.05;44.17;99297.13;10330481;28;1955;-70
2023/12/20 15:23:28;;;;;;;;;;;;;;;17.08;44.25;99273.31;10330276;28;790;-70
2023/12/20 15:28:24;;;;;;;;;;;;;;;17.10;44.07;99273.22;10330475;28;874;-70
2023/12/20 15:33:20;;;;;;;;;;;;;;;17.12;44.41;99271.38;10330685;28;1608;-70
2023/12/20 15:38:16;;;;;;;;;;;;;;;17.15;44.07;99265.09;10330248;28;1985;-70
2023/12/20 15:43:12;;;;;;;;;;;;;;;17.17;44.04;99279.06;10329652;28;909;-70
2023/12/20 15:48:11;;;;;;;;;;;;;;;17.19;44.11;99280.69;10330084;28;954;-70
2023/12/20 15:53:07;;;;;;;;;;;;;;;17.21;44.17;99273.56;10329207;28;877;-71
2023/12/20 15:58:03;;;;;;;;;;;;;;;17.18;44.05;99264.94;10329061;28;1902;-71
2023/12/20 16:02:58;;;;;;;;;;;;;;;17.24;44.06;99262.88;10328334;28;826;-70
2023/12/20 16:07:54;;;;;;;;;;;;;;;17.24;43.84;99254.97;10329311;28;912;-71
2023/12/20 16:12:50;;;;;;;;;;;;;;;17.30;43.91;99259.94;10328226;28;921;-72
2023/12/20 16:17:46;;;;;;;;;;;;;;;17.29;44.30;99257.38;10328215;28;1902;-71
2023/12/20 16:22:42;;;;;;;;;;;;;;;17.30;44.36;99256.47;10328671;28;893;-71
2023/12/20 16:27:38;;;;;;;;;;;;;;;17.30;44.15;99259.94;10327517;28;941;-71
2023/12/20 16:32:34;;;;;;;;;;;;;;;17.34;44.21;99263.25;10327609;28;810;-71
2023/12/20 16:37:30;;;;;;;;;;;;;;;17.33;44.38;99251.03;10328108;28;1922;-72
2023/12/20 16:42:25;;;;;;;;;;;;;;;17.33;44.45;99251.03;10327261;28;790;-72
2023/12/20 16:47:21;;;;;;;;;;;;;;;17.35;44.30;99249.19;10327406;28;889;-71
2023/12/20 16:52:17;;;;;;;;;;;;;;;17.33;44.44;99251.03;10326838;28;865;-71
2023/12/20 16:57:13;;;;;;;;;;;;;;;17.35;44.25;99253.59;10326075;28;1971;-71
2023/12/20 17:02:09;;;;;;;;;;;;;;;17.37;44.25;99244.69;10326588;28;868;-71
2023/12/20 17:07:05;;;;;;;;;;;;;;;17.38;44.12;99232.38;10326437;28;825;-72
2023/12/20 17:12:01;;;;;;;;;;;;;;;17.31;44.41;99232.66;10326876;28;858;-71
2023/12/20 17:16:56;;;;;;;;;;;;;;;17.25;44.46;99218.97;10326059;28;1898;-71
2023/12/20 17:21:52;;;;;;;;;;;;;;;17.21;44.26;99207.72;10325996;28;837;-71
2023/12/20 17:26:48;;;;;;;;;;;;;;;17.17;44.67;99207.94;10325400;28;821;-71
2023/12/20 17:31:44;;;;;;;;;;;;;;;17.18;44.08;99215.75;10325786;28;897;-72
2023/12/20 17:36:40;;;;;;;;;;;;;;;17.20;44.50;99192.84;10325433;28;1975;-71
2023/12/20 17:41:37;;;;;;;;;;;;;;;17.22;44.20;99208.56;10325027;28;1294;-71
2023/12/20 17:46:33;;;;;;;;;;;;;;;17.20;44.45;99208.63;10325455;28;786;-71
2023/12/20 17:51:29;;;;;;;;;;;;;;;17.24;44.25;99194.41;10325362;28;810;-72
2023/12/20 17:56:25;;;;;;;;;;;;;;;17.25;44.27;99189.97;10325259;28;825;-71
2023/12/20 18:01:21;;;;;;;;;;;;;;;17.28;44.34;99187.19;10325669;28;1890;-71
2023/12/20 18:06:17;;;;;;;;;;;;;;;17.30;44.08;99178.28;10325138;28;933;-71
2023/12/20 18:11:13;;;;;;;;;;;;;;;17.27;44.26;99164.44;10325779;28;873;-71
2023/12/20 18:16:09;;;;;;;;;;;;;;;17.33;43.85;99158.84;10324834;28;757;-71
2023/12/20 18:21:05;;;;;;;;;;;;;;;17.31;43.92;99143.09;10325023;28;1957;-71
2023/12/20 18:26:01;;;;;;;;;;;;;;;17.33;43.97;99137.75;10324616;28;827;-71
2023/12/20 18:30:57;;;;;;;;;;;;;;;17.39;43.63;99139.22;10325194;28;925;-71
2023/12/20 18:35:53;;;;;;;;;;;;;;;17.35;43.80;99133.28;10325612;28;1271;-71
2023/12/20 18:40:49;;;;;;;;;;;;;;;17.35;44.02;99129.78;10332640;28;1906;-71
2023/12/20 18:45:45;;;;;;;;;;;;;;;17.39;44.00;99136.59;10331774;28;855;-71
2023/12/20 18:50:41;;;;;;;;;;;;;;;17.36;43.77;99111.25;10331622;28;906;-71
2023/12/20 18:55:37;;;;;;;;;;;;;;;17.33;44.04;99118.47;10331581;28;936;-71
2023/12/20 19:00:33;;;;;;;;;;;;;;;17.40;43.83;99093.53;10331898;28;1949;-71
2023/12/20 19:05:28;;;;;;;;;;;;;;;17.38;43.92;99096.22;10331531;28;954;-71
2023/12/20 19:10:25;;;;;;;;;;;;;;;17.38;43.66;99096.22;10331509;28;1010;-71
2023/12/20 19:15:20;;;;;;;;;;;;;;;17.41;43.88;99085.53;10330743;28;1029;-71
2023/12/20 19:20:18;;;;;;;;;;;;;;;17.40;43.95;99072.47;10331425;28;1882;-71
2023/12/20 19:25:15;;;;;;;;;;;;;;;17.38;43.97;99047.97;10330609;28;894;-71
2023/12/20 19:30:11;;;;;;;;;;;;;;;17.40;43.82;99041.69;10330531;28;885;-71
2023/12/20 19:35:07;;;;;;;;;;;;;;;17.38;43.68;99046.19;10329919;28;1184;-71
2023/12/20 19:40:03;;;;;;;;;;;;;;;17.36;43.72;99040.13;10330150;28;1910;-71
2023/12/20 19:44:59;;;;;;;;;;;;;;;17.39;43.80;99044.41;10329691;28;766;-71
2023/12/20 19:49:56;;;;;;;;;;;;;;;17.40;43.65;99041.69;10328966;28;802;-71
2023/12/20 19:54:52;;;;;;;;;;;;;;;17.37;43.63;99031.31;10329964;28;874;-71
2023/12/20 19:59:48;;;;;;;;;;;;;;;17.41;43.66;99027.56;10329573;28;1890;-71
2023/12/20 20:04:43;;;;;;;;;;;;;;;17.42;43.45;99007.34;10329677;28;772;-71
2023/12/20 20:09:39;;;;;;;;;;;;;;;17.41;43.74;98995.13;10329264;28;802;-72
2023/12/20 20:14:35;;;;;;;;;;;;;;;17.44;43.66;98985.25;10329091;28;822;-71
2023/12/20 20:19:31;;;;;;;;;;;;;;;17.43;43.74;98985.34;10328209;28;1951;-72
2023/12/20 20:24:27;;;;;;;;;;;;;;;17.40;43.70;98967.94;10328631;28;886;-72
2023/12/20 20:29:23;;;;;;;;;;;;;;;17.43;43.73;98948.47;10328371;28;874;-71
2023/12/20 20:34:20;;;;;;;;;;;;;;;17.43;43.83;98944.03;10328621;28;843;-71
2023/12/20 20:39:18;;;;;;;;;;;;;;;17.42;43.68;98946.75;10326722;28;1961;-71
2023/12/20 20:44:14;;;;;;;;;;;;;;;17.37;43.99;98938.25;10327241;28;885;-71
2023/12/20 20:49:10;;;;;;;;;;;;;;;17.37;43.88;98940.88;10327126;28;992;-71
2023/12/20 20:54:06;;;;;;;;;;;;;;;17.37;44.03;98922.44;10326936;28;946;-71
2023/12/20 20:59:01;;;;;;;;;;;;;;;17.34;44.01;98928.72;10326485;28;1890;-71
2023/12/20 21:03:58;;;;;;;;;;;;;;;17.31;44.07;98929.75;10326549;28;901;-71
2023/12/20 21:08:53;;;;;;;;;;;;;;;17.36;44.17;98926.88;10326847;28;799;-71
2023/12/20 21:13:50;;;;;;;;;;;;;;;17.36;44.13;98931.28;10326842;28;826;-71
2023/12/20 21:18:45;;;;;;;;;;;;;;;17.31;43.95;98915.72;10325994;28;2222;-71
2023/12/20 21:23:41;;;;;;;;;;;;;;;17.26;44.12;98921.25;10326031;28;845;-71
2023/12/20 21:28:37;;;;;;;;;;;;;;;17.30;44.36;98914.88;10326107;28;947;-71
2023/12/20 21:33:33;;;;;;;;;;;;;;;17.29;44.26;98904.41;10326295;28;881;-71
2023/12/20 21:38:29;;;;;;;;;;;;;;;17.27;44.13;98903.69;10326109;28;1914;-71
2023/12/20 21:43:25;;;;;;;;;;;;;;;17.23;44.23;98896.88;10326112;28;770;-72
2023/12/20 21:48:22;;;;;;;;;;;;;;;17.23;44.25;98887.16;10325517;28;766;-71
2023/12/20 21:53:18;;;;;;;;;;;;;;;17.24;44.22;98865.19;10326423;28;838;-71
2023/12/20 21:58:14;;;;;;;;;;;;;;;17.18;44.17;98847.06;10325165;28;1930;-71
2023/12/20 22:03:10;;;;;;;;;;;;;;;17.16;44.26;98830.53;10325738;28;795;-71
2023/12/20 22:08:06;;;;;;;;;;;;;;;17.15;44.39;98823.56;10325960;28;852;-71
2023/12/20 22:13:02;;;;;;;;;;;;;;;17.14;44.50;98826.28;10331650;28;826;-71
2023/12/20 22:17:58;;;;;;;;;;;;;;;17.13;44.33;98812.25;10333606;28;1952;-71
2023/12/20 22:22:54;;;;;;;;;;;;;;;17.13;44.48;98809.63;10332768;28;917;-71
2023/12/20 22:27:50;;;;;;;;;;;;;;;17.10;44.38;98817.69;10333185;28;854;-71
2023/12/20 22:32:46;;;;;;;;;;;;;;;17.08;44.62;98827.44;10331874;28;1058;-71
2023/12/20 22:37:44;;;;;;;;;;;;;;;17.09;44.55;98826.53;10332204;28;1972;-71
2023/12/20 22:42:40;;;;;;;;;;;;;;;17.08;44.66;98843.25;10331443;28;881;-71
2023/12/20 22:47:35;;;;;;;;;;;;;;;17.06;44.53;98834.59;10331909;28;940;-71
2023/12/20 22:52:31;;;;;;;;;;;;;;;17.05;44.65;98832.88;10331822;28;790;-71
2023/12/20 22:57:27;;;;;;;;;;;;;;;17.07;44.76;98844.19;10331619;28;1969;-71
2023/12/20 23:02:23;;;;;;;;;;;;;;;17.07;44.77;98836.28;10331923;28;856;-71
2023/12/20 23:07:19;;;;;;;;;;;;;;;17.06;44.75;98834.59;10331693;28;958;-71
2023/12/20 23:12:15;;;;;;;;;;;;;;;17.05;44.68;98832.88;10331415;28;1683;-71
2023/12/20 23:17:11;;;;;;;;;;;;;;;17.08;44.62;98830.06;10330721;28;1894;-71
2023/12/20 23:22:07;;;;;;;;;;;;;;;17.05;44.73;98810.03;10329331;28;918;-71
2023/12/20 23:27:03;;;;;;;;;;;;;;;17.03;44.61;98806.66;10330485;28;968;-71
2023/12/20 23:31:59;;;;;;;;;;;;;;;17.03;44.72;98790.03;10330505;28;850;-71
2023/12/20 23:36:55;;;;;;;;;;;;;;;17.05;44.79;98767.06;10330378;28;1906;-70
2023/12/20 23:41:51;;;;;;;;;;;;;;;17.03;44.75;98747.91;10330551;28;941;-71
2023/12/20 23:46:47;;;;;;;;;;;;;;;17.02;44.74;98751.44;10329700;28;953;-71
2023/12/20 23:51:43;;;;;;;;;;;;;;;17.00;44.83;98733.13;10330309;28;858;-71
2023/12/20 23:56:38;;;;;;;;;;;;;;;17.00;44.71;98713.81;10329327;28;850;-70
